sensor_id;sensor_type;location;lat;lon;timestamp;pressure;altitude;pressure_sealevel;temperature;humidity
33414;BME280;60055;41.884;12.534;2023-06-19T00:01:55;101124.69;;;24.95;49.31
33414;BME280;60055;41.884;12.534;2023-06-19T00:04:21;101126.44;;;24.75;51.48
33414;BME280;60055;41.884;12.534;2023-06-19T00:06:46;101129.38;;;24.63;52.81
33414;BME280;60055;41.884;12.534;2023-06-19T00:09:11;101127.81;;;24.60;52.88
33414;BME280;60055;41.884;12.534;2023-06-19T00:11:37;101125.38;;;24.57;52.93
33414;BME280;60055;41.884;12.534;2023-06-19T00:14:02;101119.59;;;24.41;52.96
33414;BME280;60055;41.884;12.534;2023-06-19T00:16:28;101135.84;;;24.51;52.60
33414;BME280;60055;41.884;12.534;2023-06-19T00:18:53;101135.41;;;24.46;52.63
33414;BME280;60055;41.884;12.534;2023-06-19T00:21:22;101126.72;;;24.42;53.12
33414;BME280;60055;41.884;12.534;2023-06-19T00:23:51;101131.47;;;24.50;52.30
33414;BME280;60055;41.884;12.534;2023-06-19T00:26:17;101122.50;;;24.49;52.86
33414;BME280;60055;41.884;12.534;2023-06-19T00:28:43;101132.13;;;24.42;52.96
33414;BME280;60055;41.884;12.534;2023-06-19T00:31:11;101123.56;;;24.37;52.74
33414;BME280;60055;41.884;12.534;2023-06-19T00:33:39;101127.59;;;24.42;52.95
33414;BME280;60055;41.884;12.534;2023-06-19T00:36:11;101123.75;;;24.45;52.63
33414;BME280;60055;41.884;12.534;2023-06-19T00:38:38;101118.75;;;24.40;52.74
33414;BME280;60055;41.884;12.534;2023-06-19T00:41:04;101126.09;;;24.29;52.72
33414;BME280;60055;41.884;12.534;2023-06-19T00:43:30;101129.97;;;24.36;52.61
33414;BME280;60055;41.884;12.534;2023-06-19T00:45:59;101132.06;;;24.32;52.75
33414;BME280;60055;41.884;12.534;2023-06-19T00:48:29;101130.56;;;24.39;52.80
33414;BME280;60055;41.884;12.534;2023-06-19T00:50:58;101134.34;;;24.37;52.85
33414;BME280;60055;41.884;12.534;2023-06-19T00:53:24;101136.13;;;24.27;53.21
33414;BME280;60055;41.884;12.534;2023-06-19T00:55:51;101139.66;;;24.18;52.99
33414;BME280;60055;41.884;12.534;2023-06-19T00:58:20;101138.16;;;23.93;54.24
33414;BME280;60055;41.884;12.534;2023-06-19T01:00:46;101144.72;;;23.79;54.63
33414;BME280;60055;41.884;12.534;2023-06-19T01:03:12;101153.34;;;23.73;54.58
33414;BME280;60055;41.884;12.534;2023-06-19T01:05:38;101151.41;;;23.64;55.15
33414;BME280;60055;41.884;12.534;2023-06-19T01:10:47;101160.31;;;23.44;55.17
33414;BME280;60055;41.884;12.534;2023-06-19T01:15:58;101155.16;;;23.52;54.94
33414;BME280;60055;41.884;12.534;2023-06-19T01:18:25;101162.03;;;23.45;55.30
33414;BME280;60055;41.884;12.534;2023-06-19T01:20:52;101166.56;;;23.45;55.06
33414;BME280;60055;41.884;12.534;2023-06-19T01:23:17;101173.34;;;23.60;54.57
33414;BME280;60055;41.884;12.534;2023-06-19T01:25:43;101177.81;;;23.38;55.45
33414;BME280;60055;41.884;12.534;2023-06-19T01:28:09;101179.28;;;23.42;55.20
33414;BME280;60055;41.884;12.534;2023-06-19T01:30:39;101185.75;;;23.40;54.97
33414;BME280;60055;41.884;12.534;2023-06-19T01:33:12;101193.50;;;23.45;54.97
33414;BME280;60055;41.884;12.534;2023-06-19T01:35:42;101184.06;;;23.50;55.06
33414;BME280;60055;41.884;12.534;2023-06-19T01:38:09;101192.03;;;23.52;54.99
33414;BME280;60055;41.884;12.534;2023-06-19T01:40:36;101191.16;;;23.51;55.17
33414;BME280;60055;41.884;12.534;2023-06-19T01:43:04;101197.41;;;23.52;55.29
33414;BME280;60055;41.884;12.534;2023-06-19T01:45:31;101192.91;;;23.19;56.34
33414;BME280;60055;41.884;12.534;2023-06-19T01:47:57;101203.69;;;23.19;56.89
33414;BME280;60055;41.884;12.534;2023-06-19T01:50:23;101199.59;;;23.35;56.38
33414;BME280;60055;41.884;12.534;2023-06-19T01:52:50;101196.81;;;23.48;56.02
33414;BME280;60055;41.884;12.534;2023-06-19T01:55:15;101206.13;;;23.55;55.82
33414;BME280;60055;41.884;12.534;2023-06-19T01:57:41;101201.78;;;23.64;55.60
33414;BME280;60055;41.884;12.534;2023-06-19T02:00:07;101197.88;;;23.57;55.68
33414;BME280;60055;41.884;12.534;2023-06-19T02:02:36;101198.41;;;23.51;56.26
33414;BME280;60055;41.884;12.534;2023-06-19T02:05:02;101199.38;;;23.38;57.49
33414;BME280;60055;41.884;12.534;2023-06-19T02:07:27;101193.38;;;23.35;57.85
33414;BME280;60055;41.884;12.534;2023-06-19T02:09:53;101196.44;;;23.30;58.38
33414;BME280;60055;41.884;12.534;2023-06-19T02:12:18;101192.78;;;23.31;58.50
33414;BME280;60055;41.884;12.534;2023-06-19T02:14:44;101194.16;;;23.15;59.07
33414;BME280;60055;41.884;12.534;2023-06-19T02:17:09;101190.44;;;23.27;58.81
33414;BME280;60055;41.884;12.534;2023-06-19T02:19:35;101200.47;;;23.36;59.14
33414;BME280;60055;41.884;12.534;2023-06-19T02:22:00;101197.41;;;23.29;59.07
33414;BME280;60055;41.884;12.534;2023-06-19T02:24:26;101197.06;;;23.34;58.89
33414;BME280;60055;41.884;12.534;2023-06-19T02:26:51;101199.66;;;23.24;59.37
33414;BME280;60055;41.884;12.534;2023-06-19T02:29:16;101188.00;;;23.35;58.73
33414;BME280;60055;41.884;12.534;2023-06-19T02:31:42;101191.41;;;23.37;58.82
33414;BME280;60055;41.884;12.534;2023-06-19T02:34:08;101186.66;;;23.40;58.61
33414;BME280;60055;41.884;12.534;2023-06-19T02:36:34;101190.09;;;23.31;59.08
33414;BME280;60055;41.884;12.534;2023-06-19T02:39:01;101195.84;;;23.27;59.17
33414;BME280;60055;41.884;12.534;2023-06-19T02:41:26;101193.25;;;23.25;58.58
33414;BME280;60055;41.884;12.534;2023-06-19T02:43:52;101185.69;;;23.19;59.09
33414;BME280;60055;41.884;12.534;2023-06-19T02:46:17;101195.84;;;23.16;59.56
33414;BME280;60055;41.884;12.534;2023-06-19T02:48:43;101196.84;;;23.15;59.68
33414;BME280;60055;41.884;12.534;2023-06-19T02:51:08;101201.13;;;23.17;59.71
33414;BME280;60055;41.884;12.534;2023-06-19T02:53:34;101201.38;;;23.03;59.95
33414;BME280;60055;41.884;12.534;2023-06-19T02:55:59;101203.44;;;22.88;60.07
33414;BME280;60055;41.884;12.534;2023-06-19T02:58:25;101202.38;;;22.91;60.85
33414;BME280;60055;41.884;12.534;2023-06-19T03:00:52;101208.72;;;23.01;60.07
33414;BME280;60055;41.884;12.534;2023-06-19T03:03:17;101210.44;;;22.91;60.46
33414;BME280;60055;41.884;12.534;2023-06-19T03:05:43;101207.13;;;22.87;60.27
33414;BME280;60055;41.884;12.534;2023-06-19T03:08:08;101198.31;;;22.74;60.97
33414;BME280;60055;41.884;12.534;2023-06-19T03:10:33;101199.78;;;22.78;61.15
33414;BME280;60055;41.884;12.534;2023-06-19T03:12:59;101201.13;;;22.73;60.77
33414;BME280;60055;41.884;12.534;2023-06-19T03:15:25;101199.41;;;22.72;60.74
33414;BME280;60055;41.884;12.534;2023-06-19T03:17:52;101197.41;;;22.63;60.81
33414;BME280;60055;41.884;12.534;2023-06-19T03:20:18;101203.91;;;22.60;61.00
33414;BME280;60055;41.884;12.534;2023-06-19T03:22:43;101198.88;;;22.56;61.00
33414;BME280;60055;41.884;12.534;2023-06-19T03:25:08;101203.66;;;22.63;60.43
33414;BME280;60055;41.884;12.534;2023-06-19T03:27:34;101206.34;;;22.63;60.33
33414;BME280;60055;41.884;12.534;2023-06-19T03:30:00;101212.38;;;22.67;60.13
33414;BME280;60055;41.884;12.534;2023-06-19T03:32:26;101207.91;;;22.44;60.46
33414;BME280;60055;41.884;12.534;2023-06-19T03:34:51;101219.69;;;22.54;60.10
33414;BME280;60055;41.884;12.534;2023-06-19T03:37:16;101218.09;;;22.62;59.57
33414;BME280;60055;41.884;12.534;2023-06-19T03:39:42;101220.88;;;22.50;60.48
33414;BME280;60055;41.884;12.534;2023-06-19T03:42:08;101217.44;;;22.48;60.54
33414;BME280;60055;41.884;12.534;2023-06-19T03:44:34;101231.97;;;22.34;60.93
33414;BME280;60055;41.884;12.534;2023-06-19T03:46:59;101236.69;;;22.19;60.82
33414;BME280;60055;41.884;12.534;2023-06-19T03:49:25;101236.28;;;22.36;60.32
33414;BME280;60055;41.884;12.534;2023-06-19T03:51:51;101236.28;;;22.36;60.28
33414;BME280;60055;41.884;12.534;2023-06-19T03:54:16;101224.50;;;22.37;60.13
33414;BME280;60055;41.884;12.534;2023-06-19T03:56:42;101228.19;;;22.36;59.89
33414;BME280;60055;41.884;12.534;2023-06-19T03:59:07;101228.41;;;22.22;60.23
33414;BME280;60055;41.884;12.534;2023-06-19T04:01:33;101218.09;;;22.16;60.89
33414;BME280;60055;41.884;12.534;2023-06-19T04:03:58;101214.72;;;22.25;60.21
33414;BME280;60055;41.884;12.534;2023-06-19T04:06:24;101220.44;;;22.21;61.18
33414;BME280;60055;41.884;12.534;2023-06-19T04:08:49;101226.03;;;22.18;60.37
33414;BME280;60055;41.884;12.534;2023-06-19T04:11:15;101219.59;;;22.31;59.36
33414;BME280;60055;41.884;12.534;2023-06-19T04:13:41;101224.75;;;22.23;59.58
33414;BME280;60055;41.884;12.534;2023-06-19T04:16:06;101218.31;;;22.37;59.35
33414;BME280;60055;41.884;12.534;2023-06-19T04:18:31;101228.78;;;22.29;59.75
33414;BME280;60055;41.884;12.534;2023-06-19T04:20:57;101223.31;;;22.41;59.19
33414;BME280;60055;41.884;12.534;2023-06-19T04:23:22;101224.44;;;22.50;58.91
33414;BME280;60055;41.884;12.534;2023-06-19T04:25:48;101222.22;;;22.44;59.34
33414;BME280;60055;41.884;12.534;2023-06-19T04:28:13;101234.66;;;22.69;58.30
33414;BME280;60055;41.884;12.534;2023-06-19T04:30:39;101241.22;;;22.65;58.82
33414;BME280;60055;41.884;12.534;2023-06-19T04:33:04;101237.25;;;22.70;58.37
33414;BME280;60055;41.884;12.534;2023-06-19T04:35:31;101234.00;;;22.65;58.63
33414;BME280;60055;41.884;12.534;2023-06-19T04:37:56;101227.75;;;22.54;58.60
33414;BME280;60055;41.884;12.534;2023-06-19T04:40:26;101219.38;;;22.34;58.51
33414;BME280;60055;41.884;12.534;2023-06-19T04:42:52;101227.00;;;22.40;58.35
33414;BME280;60055;41.884;12.534;2023-06-19T04:45:19;101233.13;;;22.54;57.87
33414;BME280;60055;41.884;12.534;2023-06-19T04:47:44;101224.16;;;22.77;57.82
33414;BME280;60055;41.884;12.534;2023-06-19T04:50:10;101231.88;;;23.04;56.64
33414;BME280;60055;41.884;12.534;2023-06-19T04:52:35;101228.78;;;23.19;56.20
33414;BME280;60055;41.884;12.534;2023-06-19T04:55:00;101232.59;;;23.50;55.23
33414;BME280;60055;41.884;12.534;2023-06-19T04:57:26;101239.53;;;23.75;54.76
33414;BME280;60055;41.884;12.534;2023-06-19T04:59:51;101240.97;;;24.11;53.53
33414;BME280;60055;41.884;12.534;2023-06-19T05:02:17;101239.31;;;24.30;52.47
33414;BME280;60055;41.884;12.534;2023-06-19T05:04:42;101237.41;;;24.63;51.96
33414;BME280;60055;41.884;12.534;2023-06-19T05:07:09;101238.28;;;24.63;51.72
33414;BME280;60055;41.884;12.534;2023-06-19T05:09:35;101231.88;;;24.85;51.24
33414;BME280;60055;41.884;12.534;2023-06-19T05:12:01;101224.66;;;24.95;50.59
33414;BME280;60055;41.884;12.534;2023-06-19T05:14:26;101226.59;;;25.04;50.08
33414;BME280;60055;41.884;12.534;2023-06-19T05:16:53;101237.59;;;25.31;49.18
33414;BME280;60055;41.884;12.534;2023-06-19T05:19:18;101233.25;;;25.50;48.73
33414;BME280;60055;41.884;12.534;2023-06-19T05:21:43;101232.19;;;25.31;49.10
33414;BME280;60055;41.884;12.534;2023-06-19T05:24:09;101225.69;;;24.94;49.94
33414;BME280;60055;41.884;12.534;2023-06-19T05:26:34;101228.31;;;24.84;49.91
33414;BME280;60055;41.884;12.534;2023-06-19T05:29:00;101226.59;;;25.04;49.69
33414;BME280;60055;41.884;12.534;2023-06-19T05:31:25;101224.25;;;25.39;48.71
33414;BME280;60055;41.884;12.534;2023-06-19T05:33:51;101234.75;;;25.63;48.49
33414;BME280;60055;41.884;12.534;2023-06-19T05:36:16;101231.38;;;26.00;47.50
33414;BME280;60055;41.884;12.534;2023-06-19T05:38:41;101222.97;;;25.93;46.96
33414;BME280;60055;41.884;12.534;2023-06-19T05:41:08;101230.66;;;26.07;46.99
33414;BME280;60055;41.884;12.534;2023-06-19T05:43:33;101235.63;;;25.92;47.32
33414;BME280;60055;41.884;12.534;2023-06-19T05:45:58;101235.53;;;26.32;47.33
33414;BME280;60055;41.884;12.534;2023-06-19T05:48:25;101225.63;;;26.70;46.37
33414;BME280;60055;41.884;12.534;2023-06-19T05:50:51;101229.44;;;26.77;45.57
33414;BME280;60055;41.884;12.534;2023-06-19T05:53:16;101228.31;;;26.79;45.15
33414;BME280;60055;41.884;12.534;2023-06-19T05:55:42;101230.59;;;26.74;45.90
33414;BME280;60055;41.884;12.534;2023-06-19T05:58:08;101225.31;;;26.92;44.70
33414;BME280;60055;41.884;12.534;2023-06-19T06:00:34;101222.47;;;26.94;45.11
33414;BME280;60055;41.884;12.534;2023-06-19T06:02:59;101226.59;;;26.88;45.51
33414;BME280;60055;41.884;12.534;2023-06-19T06:05:26;101225.31;;;27.19;44.87
33414;BME280;60055;41.884;12.534;2023-06-19T06:07:52;101219.78;;;27.11;44.57
33414;BME280;60055;41.884;12.534;2023-06-19T06:10:19;101221.69;;;27.28;43.89
33414;BME280;60055;41.884;12.534;2023-06-19T06:12:45;101218.00;;;27.29;44.06
33414;BME280;60055;41.884;12.534;2023-06-19T06:15:10;101220.72;;;27.29;44.43
33414;BME280;60055;41.884;12.534;2023-06-19T06:17:36;101221.66;;;27.65;42.99
33414;BME280;60055;41.884;12.534;2023-06-19T06:20:02;101221.63;;;28.10;42.70
33414;BME280;60055;41.884;12.534;2023-06-19T06:22:28;101220.69;;;28.02;42.63
33414;BME280;60055;41.884;12.534;2023-06-19T06:24:53;101215.25;;;28.37;41.97
33414;BME280;60055;41.884;12.534;2023-06-19T06:27:19;101211.41;;;28.22;41.61
33414;BME280;60055;41.884;12.534;2023-06-19T06:29:45;101216.41;;;27.81;41.91
33414;BME280;60055;41.884;12.534;2023-06-19T06:32:10;101214.50;;;28.09;42.07
33414;BME280;60055;41.884;12.534;2023-06-19T06:34:36;101210.84;;;28.01;41.82
33414;BME280;60055;41.884;12.534;2023-06-19T06:37:01;101205.72;;;27.98;42.11
33414;BME280;60055;41.884;12.534;2023-06-19T06:39:27;101206.56;;;28.16;41.99
33414;BME280;60055;41.884;12.534;2023-06-19T06:41:53;101207.19;;;28.27;41.51
33414;BME280;60055;41.884;12.534;2023-06-19T06:44:18;101210.44;;;28.57;40.78
33414;BME280;60055;41.884;12.534;2023-06-19T06:46:44;101220.59;;;28.29;41.19
33414;BME280;60055;41.884;12.534;2023-06-19T06:49:09;101218.25;;;28.52;41.16
33414;BME280;60055;41.884;12.534;2023-06-19T06:51:35;101218.53;;;28.92;40.39
33414;BME280;60055;41.884;12.534;2023-06-19T06:54:00;101223.16;;;29.00;39.56
33414;BME280;60055;41.884;12.534;2023-06-19T06:56:25;101225.09;;;29.15;39.34
33414;BME280;60055;41.884;12.534;2023-06-19T06:58:51;101216.81;;;29.25;39.24
33414;BME280;60055;41.884;12.534;2023-06-19T07:01:17;101214.38;;;29.48;38.74
33414;BME280;60055;41.884;12.534;2023-06-19T07:03:42;101211.00;;;29.62;38.80
33414;BME280;60055;41.884;12.534;2023-06-19T07:06:07;101211.84;;;29.54;38.29
33414;BME280;60055;41.884;12.534;2023-06-19T07:08:33;101217.41;;;29.45;38.50
33414;BME280;60055;41.884;12.534;2023-06-19T07:10:58;101224.44;;;29.55;38.24
33414;BME280;60055;41.884;12.534;2023-06-19T07:13:24;101222.72;;;29.54;37.66
33414;BME280;60055;41.884;12.534;2023-06-19T07:15:50;101211.13;;;29.44;38.86
33414;BME280;60055;41.884;12.534;2023-06-19T07:18:15;101214.19;;;29.91;37.63
33414;BME280;60055;41.884;12.534;2023-06-19T07:20:41;101215.78;;;29.60;38.59
33414;BME280;60055;41.884;12.534;2023-06-19T07:23:06;101219.28;;;30.02;37.67
33414;BME280;60055;41.884;12.534;2023-06-19T07:25:32;101206.69;;;30.01;37.17
33414;BME280;60055;41.884;12.534;2023-06-19T07:27:59;101209.00;;;29.64;37.47
33414;BME280;60055;41.884;12.534;2023-06-19T07:30:25;101205.06;;;29.74;37.76
33414;BME280;60055;41.884;12.534;2023-06-19T07:32:51;101201.91;;;29.87;36.98
33414;BME280;60055;41.884;12.534;2023-06-19T07:35:16;101204.97;;;30.32;37.01
33414;BME280;60055;41.884;12.534;2023-06-19T07:37:51;101205.50;;;30.68;36.24
33414;BME280;60055;41.884;12.534;2023-06-19T07:40:16;101209.72;;;30.38;36.34
33414;BME280;60055;41.884;12.534;2023-06-19T07:42:41;101194.94;;;30.49;35.82
33414;BME280;60055;41.884;12.534;2023-06-19T07:45:07;101198.88;;;30.55;35.70
33414;BME280;60055;41.884;12.534;2023-06-19T07:47:33;101197.47;;;30.75;35.16
33414;BME280;60055;41.884;12.534;2023-06-19T07:49:58;101202.25;;;31.20;35.24
33414;BME280;60055;41.884;12.534;2023-06-19T07:52:23;101203.47;;;31.17;34.60
33414;BME280;60055;41.884;12.534;2023-06-19T07:54:53;101200.47;;;31.43;33.84
33414;BME280;60055;41.884;12.534;2023-06-19T07:57:20;101212.22;;;31.52;34.25
33414;BME280;60055;41.884;12.534;2023-06-19T07:59:47;101201.28;;;31.52;33.87
33414;BME280;60055;41.884;12.534;2023-06-19T08:02:12;101200.16;;;31.69;32.90
33414;BME280;60055;41.884;12.534;2023-06-19T08:04:37;101191.84;;;31.85;32.79
33414;BME280;60055;41.884;12.534;2023-06-19T08:07:03;101202.66;;;31.78;33.08
33414;BME280;60055;41.884;12.534;2023-06-19T08:09:29;101195.19;;;31.95;32.61
33414;BME280;60055;41.884;12.534;2023-06-19T08:11:54;101201.34;;;31.97;32.79
33414;BME280;60055;41.884;12.534;2023-06-19T08:14:19;101190.91;;;32.01;31.93
33414;BME280;60055;41.884;12.534;2023-06-19T08:16:45;101196.09;;;31.65;33.58
33414;BME280;60055;41.884;12.534;2023-06-19T08:19:10;101193.69;;;31.70;33.26
33414;BME280;60055;41.884;12.534;2023-06-19T08:21:36;101193.44;;;31.57;33.52
33414;BME280;60055;41.884;12.534;2023-06-19T08:24:01;101187.00;;;31.33;33.73
33414;BME280;60055;41.884;12.534;2023-06-19T08:26:27;101197.88;;;31.11;33.15
33414;BME280;60055;41.884;12.534;2023-06-19T08:28:53;101184.28;;;31.03;32.79
33414;BME280;60055;41.884;12.534;2023-06-19T08:31:19;101189.34;;;31.14;31.92
33414;BME280;60055;41.884;12.534;2023-06-19T08:33:46;101188.09;;;31.24;31.98
33414;BME280;60055;41.884;12.534;2023-06-19T08:36:13;101197.03;;;31.10;32.02
33414;BME280;60055;41.884;12.534;2023-06-19T08:38:39;101186.97;;;31.11;31.81
33414;BME280;60055;41.884;12.534;2023-06-19T08:41:04;101191.97;;;30.83;31.48
33414;BME280;60055;41.884;12.534;2023-06-19T08:43:30;101189.38;;;30.89;30.07
33414;BME280;60055;41.884;12.534;2023-06-19T08:46:16;101196.34;;;31.08;28.09
33414;BME280;60055;41.884;12.534;2023-06-19T08:48:45;101190.94;;;30.84;28.43
33414;BME280;60055;41.884;12.534;2023-06-19T08:51:11;101179.75;;;31.26;27.40
33414;BME280;60055;41.884;12.534;2023-06-19T08:53:48;101187.00;;;31.33;26.80
33414;BME280;60055;41.884;12.534;2023-06-19T08:56:16;101178.59;;;31.51;27.00
33414;BME280;60055;41.884;12.534;2023-06-19T08:58:42;101180.06;;;31.62;27.33
33414;BME280;60055;41.884;12.534;2023-06-19T09:01:07;101182.44;;;31.65;26.59
33414;BME280;60055;41.884;12.534;2023-06-19T09:03:33;101173.03;;;31.67;26.50
33414;BME280;60055;41.884;12.534;2023-06-19T09:06:07;101178.69;;;31.88;27.24
33414;BME280;60055;41.884;12.534;2023-06-19T09:08:33;101184.81;;;31.68;27.63
33414;BME280;60055;41.884;12.534;2023-06-19T09:11:03;101176.38;;;31.77;27.43
33414;BME280;60055;41.884;12.534;2023-06-19T09:13:29;101185.09;;;31.42;27.72
33414;BME280;60055;41.884;12.534;2023-06-19T09:16:08;101185.72;;;31.21;28.67
33414;BME280;60055;41.884;12.534;2023-06-19T09:18:47;101182.41;;;31.34;27.68
33414;BME280;60055;41.884;12.534;2023-06-19T09:21:20;101178.00;;;31.33;28.41
33414;BME280;60055;41.884;12.534;2023-06-19T09:23:50;101171.13;;;31.37;27.65
33414;BME280;60055;41.884;12.534;2023-06-19T09:26:17;101178.88;;;31.25;28.23
33414;BME280;60055;41.884;12.534;2023-06-19T09:28:44;101179.19;;;31.30;28.24
33414;BME280;60055;41.884;12.534;2023-06-19T09:31:10;101176.84;;;31.50;27.60
33414;BME280;60055;41.884;12.534;2023-06-19T09:33:36;101178.72;;;31.58;27.15
33414;BME280;60055;41.884;12.534;2023-06-19T09:36:04;101185.97;;;31.73;26.87
33414;BME280;60055;41.884;12.534;2023-06-19T09:38:32;101179.78;;;31.79;26.89
33414;BME280;60055;41.884;12.534;2023-06-19T09:41:01;101190.88;;;31.47;27.34
33414;BME280;60055;41.884;12.534;2023-06-19T09:46:06;101186.63;;;31.53;27.62
33414;BME280;60055;41.884;12.534;2023-06-19T09:48:33;101186.47;;;31.46;26.84
33414;BME280;60055;41.884;12.534;2023-06-19T09:51:37;101183.00;;;31.21;26.67
33414;BME280;60055;41.884;12.534;2023-06-19T09:54:03;101178.66;;;31.35;27.05
33414;BME280;60055;41.884;12.534;2023-06-19T09:56:30;101182.91;;;31.37;27.18
33414;BME280;60055;41.884;12.534;2023-06-19T09:58:57;101186.78;;;31.51;26.56
33414;BME280;60055;41.884;12.534;2023-06-19T10:01:29;101180.44;;;31.59;25.88
33414;BME280;60055;41.884;12.534;2023-06-19T10:04:06;101168.66;;;31.81;26.13
33414;BME280;60055;41.884;12.534;2023-06-19T10:06:32;101174.06;;;31.66;25.64
33414;BME280;60055;41.884;12.534;2023-06-19T10:09:07;101165.63;;;31.76;26.93
33414;BME280;60055;41.884;12.534;2023-06-19T10:11:49;101171.75;;;31.78;27.30
33414;BME280;60055;41.884;12.534;2023-06-19T10:14:19;101166.88;;;31.73;26.52
33414;BME280;60055;41.884;12.534;2023-06-19T10:16:45;101167.69;;;31.74;25.78
33414;BME280;60055;41.884;12.534;2023-06-19T10:19:16;101167.69;;;31.97;26.14
33414;BME280;60055;41.884;12.534;2023-06-19T10:21:50;101169.19;;;32.07;26.10
33414;BME280;60055;41.884;12.534;2023-06-19T10:24:18;101166.75;;;32.12;26.46
33414;BME280;60055;41.884;12.534;2023-06-19T10:26:57;101170.00;;;31.85;25.77
33414;BME280;60055;41.884;12.534;2023-06-19T10:29:23;101174.84;;;31.98;25.59
33414;BME280;60055;41.884;12.534;2023-06-19T10:31:49;101170.91;;;31.77;26.12
33414;BME280;60055;41.884;12.534;2023-06-19T10:34:15;101165.03;;;31.66;25.90
33414;BME280;60055;41.884;12.534;2023-06-19T10:36:40;101166.50;;;31.76;25.51
33414;BME280;60055;41.884;12.534;2023-06-19T10:39:06;101154.78;;;31.90;25.16
33414;BME280;60055;41.884;12.534;2023-06-19T10:41:32;101172.84;;;31.69;26.00
33414;BME280;60055;41.884;12.534;2023-06-19T10:44:02;101163.28;;;31.73;26.33
33414;BME280;60055;41.884;12.534;2023-06-19T10:46:33;101159.19;;;31.91;25.63
33414;BME280;60055;41.884;12.534;2023-06-19T10:49:00;101166.31;;;32.01;26.07
33414;BME280;60055;41.884;12.534;2023-06-19T10:51:36;101161.28;;;32.12;25.16
33414;BME280;60055;41.884;12.534;2023-06-19T10:54:02;101151.63;;;31.79;23.80
33414;BME280;60055;41.884;12.534;2023-06-19T10:56:27;101152.97;;;31.98;24.96
33414;BME280;60055;41.884;12.534;2023-06-19T10:59:03;101150.41;;;31.81;25.56
33414;BME280;60055;41.884;12.534;2023-06-19T11:01:32;101149.75;;;31.79;28.51
33414;BME280;60055;41.884;12.534;2023-06-19T11:03:59;101156.06;;;31.80;31.21
33414;BME280;60055;41.884;12.534;2023-06-19T11:06:24;101154.19;;;31.50;32.71
33414;BME280;60055;41.884;12.534;2023-06-19T11:08:51;101159.56;;;31.66;33.09
33414;BME280;60055;41.884;12.534;2023-06-19T11:11:17;101156.09;;;31.72;32.98
33414;BME280;60055;41.884;12.534;2023-06-19T11:13:43;101161.81;;;31.85;32.64
33414;BME280;60055;41.884;12.534;2023-06-19T11:16:08;101164.22;;;32.03;33.19
33414;BME280;60055;41.884;12.534;2023-06-19T11:18:33;101165.88;;;31.89;31.95
33414;BME280;60055;41.884;12.534;2023-06-19T11:20:59;101163.19;;;31.81;31.50
33414;BME280;60055;41.884;12.534;2023-06-19T11:23:31;101163.50;;;31.86;31.11
33414;BME280;60055;41.884;12.534;2023-06-19T11:26:03;101160.41;;;31.89;31.37
33414;BME280;60055;41.884;12.534;2023-06-19T11:28:29;101163.44;;;31.94;30.59
33414;BME280;60055;41.884;12.534;2023-06-19T11:30:58;101162.13;;;31.90;30.77
33414;BME280;60055;41.884;12.534;2023-06-19T11:33:24;101161.16;;;32.06;31.45
33414;BME280;60055;41.884;12.534;2023-06-19T11:35:50;101163.09;;;31.97;30.68
33414;BME280;60055;41.884;12.534;2023-06-19T11:38:23;101164.53;;;32.08;30.02
33414;BME280;60055;41.884;12.534;2023-06-19T11:40:50;101160.16;;;31.99;30.71
33414;BME280;60055;41.884;12.534;2023-06-19T11:43:29;101157.25;;;32.00;30.80
33414;BME280;60055;41.884;12.534;2023-06-19T11:46:05;101157.63;;;31.97;31.12
33414;BME280;60055;41.884;12.534;2023-06-19T11:48:31;101162.88;;;31.99;31.40
33414;BME280;60055;41.884;12.534;2023-06-19T11:50:57;101151.75;;;32.08;31.46
33414;BME280;60055;41.884;12.534;2023-06-19T11:53:24;101157.69;;;32.12;32.76
33414;BME280;60055;41.884;12.534;2023-06-19T11:55:52;101160.16;;;31.99;33.34
33414;BME280;60055;41.884;12.534;2023-06-19T11:58:18;101160.63;;;32.02;33.04
33414;BME280;60055;41.884;12.534;2023-06-19T12:00:47;101152.09;;;31.82;34.27
33414;BME280;60055;41.884;12.534;2023-06-19T12:03:12;101165.63;;;31.76;34.66
33414;BME280;60055;41.884;12.534;2023-06-19T12:05:38;101154.88;;;31.74;34.40
33414;BME280;60055;41.884;12.534;2023-06-19T12:08:04;101167.66;;;31.51;34.93
33414;BME280;60055;41.884;12.534;2023-06-19T12:10:31;101165.31;;;31.71;34.52
33414;BME280;60055;41.884;12.534;2023-06-19T12:12:57;101171.28;;;31.74;33.90
33414;BME280;60055;41.884;12.534;2023-06-19T12:15:22;101177.28;;;31.70;33.54
33414;BME280;60055;41.884;12.534;2023-06-19T12:17:48;101182.03;;;31.76;33.45
33414;BME280;60055;41.884;12.534;2023-06-19T12:20:14;101188.44;;;31.60;33.75
33414;BME280;60055;41.884;12.534;2023-06-19T12:22:40;101181.59;;;31.64;33.13
33414;BME280;60055;41.884;12.534;2023-06-19T12:25:05;101182.13;;;31.60;32.75
33414;BME280;60055;41.884;12.534;2023-06-19T12:27:31;101188.09;;;31.63;33.21
33414;BME280;60055;41.884;12.534;2023-06-19T12:29:56;101182.91;;;31.37;33.46
33414;BME280;60055;41.884;12.534;2023-06-19T12:32:22;101178.59;;;31.51;33.53
33414;BME280;60055;41.884;12.534;2023-06-19T12:34:48;101170.44;;;31.43;33.52
33414;BME280;60055;41.884;12.534;2023-06-19T12:37:14;101166.59;;;31.60;33.99
33414;BME280;60055;41.884;12.534;2023-06-19T12:39:40;101158.09;;;31.78;33.39
33414;BME280;60055;41.884;12.534;2023-06-19T12:42:07;101162.53;;;31.79;33.44
33414;BME280;60055;41.884;12.534;2023-06-19T12:44:32;101155.59;;;31.91;33.49
33414;BME280;60055;41.884;12.534;2023-06-19T12:46:58;101150.44;;;31.96;33.61